createdAt,value
2018-06-09T00:21:47.346Z,15.90
2018-06-09T00:22:20.916Z,15.40
2018-06-09T00:22:54.457Z,15.40
2018-06-09T00:23:27.981Z,15.40
2018-06-09T00:24:01.530Z,15.40
2018-06-09T00:24:35.424Z,15.40
2018-06-09T00:25:08.988Z,15.40
2018-06-09T00:25:42.610Z,15.40
2018-06-09T00:26:16.150Z,15.40
2018-06-09T00:26:50.046Z,15.40
2018-06-09T00:27:23.580Z,15.40
2018-06-09T00:27:57.476Z,15.40
2018-06-09T00:28:31.050Z,15.40
2018-06-09T00:29:04.597Z,15.40
2018-06-09T00:29:38.120Z,15.40
2018-06-09T00:30:11.694Z,15.40
2018-06-09T00:30:45.272Z,15.40
2018-06-09T00:31:18.808Z,15.40
2018-06-09T00:31:52.335Z,15.40
2018-06-09T00:32:25.902Z,15.40
2018-06-09T00:32:59.429Z,15.40
2018-06-09T00:33:32.712Z,15.40
2018-06-09T00:34:06.213Z,15.40
2018-06-09T00:34:39.773Z,15.40
2018-06-09T00:35:13.042Z,15.40
2018-06-09T00:35:46.336Z,15.40
2018-06-09T00:36:19.870Z,15.40
2018-06-09T00:36:53.760Z,15.40
2018-06-09T00:37:27.318Z,15.40
2018-06-09T00:38:00.883Z,15.40
2018-06-09T00:38:34.151Z,15.40
2018-06-09T00:39:08.453Z,15.40
2018-06-09T00:39:42.071Z,15.40
2018-06-09T00:40:16.026Z,15.40
2018-06-09T00:40:49.651Z,15.40
2018-06-09T00:41:22.888Z,15.40
2018-06-09T00:41:56.190Z,15.40
2018-06-09T00:42:29.734Z,15.40
2018-06-09T00:43:03.016Z,15.40
2018-06-09T00:43:36.890Z,15.40
2018-06-09T00:44:10.172Z,15.40
2018-06-09T00:44:43.452Z,15.40
2018-06-09T00:45:17.022Z,15.40
2018-06-09T00:45:50.387Z,15.40
2018-06-09T00:46:23.944Z,15.40
2018-06-09T00:46:57.570Z,15.40
2018-06-09T00:47:31.148Z,15.50
2018-06-09T00:48:04.808Z,15.50
2018-06-09T00:48:38.416Z,15.50
2018-06-09T00:49:11.696Z,15.50
2018-06-09T00:49:45.003Z,15.50
2018-06-09T00:50:18.338Z,15.50
2018-06-09T00:50:52.036Z,15.50
2018-06-09T00:51:25.335Z,15.50
2018-06-09T00:51:58.614Z,15.50
2018-06-09T00:52:31.866Z,15.40
2018-06-09T00:53:05.160Z,15.50
2018-06-09T00:53:38.468Z,15.50
2018-06-09T00:54:11.762Z,15.50
2018-06-09T00:54:45.324Z,15.50
2018-06-09T00:55:18.588Z,15.50
2018-06-09T00:55:57.966Z,15.40
2018-06-09T00:56:42.658Z,15.50
2018-06-09T00:57:55.866Z,15.50
2018-06-09T00:58:29.463Z,15.50
2018-06-09T00:59:03.048Z,15.50
2018-06-09T00:59:36.330Z,15.50
2018-06-09T01:00:09.888Z,15.50
2018-06-09T01:00:43.497Z,15.50
2018-06-09T01:01:17.430Z,15.50
2018-06-09T01:01:50.960Z,15.40
2018-06-09T01:02:24.250Z,15.50
2018-06-09T01:02:57.576Z,15.40
2018-06-09T01:03:30.854Z,15.50
2018-06-09T01:04:04.120Z,15.40
2018-06-09T01:04:37.425Z,15.50
2018-06-09T01:05:10.702Z,15.50
2018-06-09T01:05:44.252Z,15.40
2018-06-09T01:06:17.808Z,15.40
2018-06-09T01:06:51.730Z,15.40
2018-06-09T01:07:25.024Z,15.40
2018-06-09T01:07:58.344Z,15.40
2018-06-09T01:09:07.542Z,15.40
2018-06-09T01:09:40.795Z,15.40
2018-06-09T01:10:14.080Z,15.40
2018-06-09T01:10:47.654Z,15.40
2018-06-09T01:11:20.944Z,15.40
2018-06-09T01:11:54.556Z,15.40
2018-06-09T01:12:28.204Z,15.40
2018-06-09T01:13:01.716Z,15.40
2018-06-09T01:13:34.980Z,15.40
2018-06-09T01:14:08.236Z,15.40
2018-06-09T01:14:42.092Z,15.40
2018-06-09T01:15:15.698Z,15.40
2018-06-09T01:15:48.966Z,15.40
2018-06-09T01:16:22.243Z,15.40
2018-06-09T01:16:55.496Z,15.40
2018-06-09T01:17:28.776Z,15.30
2018-06-09T01:18:02.356Z,15.40
2018-06-09T01:18:35.646Z,15.30
2018-06-09T01:19:08.942Z,15.40
2018-06-09T01:19:42.910Z,15.30
2018-06-09T01:20:16.666Z,15.30
2018-06-09T01:20:49.930Z,15.30
2018-06-09T01:21:23.562Z,15.30
2018-06-09T01:21:56.848Z,15.30
2018-06-09T01:22:30.134Z,15.30
2018-06-09T01:23:03.470Z,15.30
2018-06-09T01:23:36.720Z,15.30
2018-06-09T01:24:10.023Z,15.30
2018-06-09T01:24:43.300Z,15.20
2018-06-09T01:25:16.591Z,15.20
2018-06-09T01:25:49.866Z,15.20
2018-06-09T01:26:23.124Z,15.20
2018-06-09T01:26:56.477Z,15.20
2018-06-09T01:27:29.811Z,15.20
2018-06-09T01:28:03.062Z,15.20
2018-06-09T01:28:36.656Z,15.20
2018-06-09T01:29:09.952Z,15.20
2018-06-09T01:30:16.260Z,15.10
2018-06-09T01:30:49.810Z,15.10
2018-06-09T01:31:23.335Z,15.10
2018-06-09T01:31:56.643Z,15.10
2018-06-09T01:32:29.920Z,15.10
2018-06-09T01:33:03.224Z,15.10
2018-06-09T01:34:09.846Z,15.10
2018-06-09T01:34:43.095Z,15.10
2018-06-09T01:35:16.652Z,15.10
2018-06-09T01:35:50.236Z,15.10
2018-06-09T01:36:23.520Z,15.10
2018-06-09T01:36:56.796Z,15.20
2018-06-09T01:37:30.340Z,15.20
2018-06-09T01:38:03.950Z,15.20
2018-06-09T01:38:37.559Z,15.20
2018-06-09T01:39:11.454Z,15.20
2018-06-09T01:39:44.872Z,15.20
2018-06-09T01:40:18.455Z,15.10
2018-06-09T01:40:51.991Z,15.10
2018-06-09T01:41:25.275Z,15.10
2018-06-09T01:41:58.829Z,15.20
2018-06-09T01:42:32.411Z,15.20
2018-06-09T01:43:05.983Z,15.10
2018-06-09T01:43:39.267Z,15.10
2018-06-09T01:44:12.593Z,15.20
2018-06-09T01:44:46.439Z,15.20
2018-06-09T01:45:19.743Z,15.10
2018-06-09T01:45:53.015Z,15.10
2018-06-09T01:46:59.559Z,15.20
2018-06-09T01:47:32.809Z,15.10
2018-06-09T01:48:06.318Z,15.10
2018-06-09T01:48:39.625Z,15.10
2018-06-09T01:49:12.924Z,15.10
2018-06-09T01:49:46.475Z,15.10
2018-06-09T01:50:19.766Z,15.10
2018-06-09T01:50:53.053Z,15.10
2018-06-09T01:51:26.308Z,15.10
2018-06-09T01:51:59.609Z,15.00
2018-06-09T01:52:32.886Z,15.00
2018-06-09T01:53:06.200Z,15.00
2018-06-09T01:53:39.500Z,15.00
2018-06-09T01:54:12.790Z,15.00
2018-06-09T01:54:46.086Z,15.00
2018-06-09T01:55:19.372Z,14.90
2018-06-09T01:55:52.898Z,15.00
2018-06-09T01:56:26.452Z,14.90
2018-06-09T01:57:00.055Z,14.90
2018-06-09T01:57:33.612Z,14.90
2018-06-09T01:58:06.881Z,14.90
2018-06-09T01:58:40.436Z,14.90
2018-06-09T01:59:13.976Z,14.90
2018-06-09T01:59:47.532Z,14.90
2018-06-09T02:00:20.814Z,14.80
2018-06-09T02:00:54.088Z,14.80
2018-06-09T02:01:27.543Z,14.80
2018-06-09T02:02:01.101Z,14.80
2018-06-09T02:02:34.386Z,14.80
2018-06-09T02:03:07.666Z,14.80
2018-06-09T02:04:14.235Z,14.80
2018-06-09T02:04:47.564Z,14.70
2018-06-09T02:05:20.842Z,14.70
2018-06-09T02:05:54.368Z,14.70
2018-06-09T02:06:27.672Z,14.70
2018-06-09T02:07:01.259Z,14.70
2018-06-09T02:07:35.162Z,14.70
2018-06-09T02:08:08.720Z,14.60
2018-06-09T02:08:42.037Z,14.60
2018-06-09T02:09:15.598Z,14.60
2018-06-09T02:09:49.098Z,14.60
2018-06-09T02:10:22.617Z,14.60
2018-06-09T02:10:56.475Z,14.60
2018-06-09T02:11:29.767Z,14.60
2018-06-09T02:12:03.133Z,14.60
2018-06-09T02:12:36.422Z,14.60
2018-06-09T02:13:09.746Z,14.60
2018-06-09T02:13:43.296Z,14.50
2018-06-09T02:14:16.880Z,14.50
2018-06-09T02:14:50.396Z,14.50
2018-06-09T02:15:24.009Z,14.50
2018-06-09T02:15:57.560Z,14.50
2018-06-09T02:16:31.112Z,14.50
2018-06-09T02:17:04.423Z,14.50
2018-06-09T02:17:38.670Z,14.50
2018-06-09T02:18:12.084Z,14.50
2018-06-09T02:18:45.345Z,14.50
2018-06-09T02:19:18.879Z,14.50
2018-06-09T02:19:52.400Z,14.50
2018-06-09T02:20:26.258Z,14.50
2018-06-09T02:20:59.896Z,14.50
2018-06-09T02:21:33.413Z,14.50
2018-06-09T02:22:06.985Z,14.50
2018-06-09T02:22:40.557Z,14.50
2018-06-09T02:23:14.109Z,14.50
2018-06-09T02:23:47.627Z,14.50
2018-06-09T02:24:21.139Z,14.50
2018-06-09T02:24:54.681Z,14.50
2018-06-09T02:25:28.241Z,14.50
2018-06-09T02:26:02.109Z,14.50
2018-06-09T02:26:35.634Z,14.50
2018-06-09T02:27:09.184Z,14.40
2018-06-09T02:27:43.051Z,14.50
2018-06-09T02:28:16.589Z,14.40
2018-06-09T02:28:50.128Z,14.50
2018-06-09T02:29:24.016Z,14.40
2018-06-09T02:29:57.579Z,14.40
2018-06-09T02:30:31.437Z,14.40
2018-06-09T02:31:05.692Z,14.40
2018-06-09T02:31:39.209Z,14.40
2018-06-09T02:32:13.151Z,14.40
2018-06-09T02:32:46.464Z,14.40
2018-06-09T02:33:20.027Z,14.40
2018-06-09T02:33:53.565Z,14.40
2018-06-09T02:34:27.149Z,14.40
2018-06-09T02:35:00.681Z,14.40
2018-06-09T02:35:34.213Z,14.40
2018-06-09T02:36:07.728Z,14.40
2018-06-09T02:36:41.589Z,14.30
2018-06-09T02:37:15.163Z,14.40
2018-06-09T02:37:48.449Z,14.40
2018-06-09T02:38:21.988Z,14.40
2018-06-09T02:38:55.537Z,14.40
2018-06-09T02:39:29.055Z,14.40
2018-06-09T02:40:02.949Z,14.40
2018-06-09T02:40:36.519Z,14.40
2018-06-09T02:41:10.039Z,14.40
2018-06-09T02:41:43.575Z,14.40
2018-06-09T02:42:17.149Z,14.40
2018-06-09T02:42:50.419Z,14.40
2018-06-09T02:43:23.959Z,14.40
2018-06-09T02:43:57.266Z,14.40
2018-06-09T02:44:30.846Z,14.40
2018-06-09T02:45:04.181Z,14.40
2018-06-09T02:45:37.761Z,14.40
2018-06-09T02:46:11.337Z,14.50
2018-06-09T02:46:44.911Z,14.50
2018-06-09T02:47:18.487Z,14.40
2018-06-09T02:47:52.157Z,14.50
2018-06-09T02:48:25.767Z,14.40
2018-06-09T02:48:59.307Z,14.40
2018-06-09T02:49:32.879Z,14.40
2018-06-09T02:50:06.414Z,14.40
2018-06-09T02:50:39.937Z,14.40
2018-06-09T02:51:13.642Z,14.40
2018-06-09T02:51:47.081Z,14.40
2018-06-09T02:52:20.392Z,14.40
2018-06-09T02:52:54.095Z,14.40
2018-06-09T02:53:27.635Z,14.40
2018-06-09T02:54:01.169Z,14.40
2018-06-09T02:54:34.707Z,14.50
2018-06-09T02:55:08.272Z,14.40
2018-06-09T02:55:41.647Z,14.50
2018-06-09T02:56:15.267Z,14.50
2018-06-09T02:56:48.819Z,14.50
2018-06-09T02:57:22.138Z,14.50
2018-06-09T02:57:55.419Z,14.50
2018-06-09T02:58:28.831Z,14.50
2018-06-09T02:59:02.722Z,14.50
2018-06-09T02:59:36.311Z,14.50
2018-06-09T03:00:09.617Z,14.50
2018-06-09T03:00:43.194Z,14.50
2018-06-09T03:01:16.731Z,14.50
2018-06-09T03:01:50.016Z,14.50
2018-06-09T03:02:23.330Z,14.50
2018-06-09T03:02:56.951Z,14.50
2018-06-09T03:03:30.228Z,14.50
2018-06-09T03:04:04.094Z,14.50
2018-06-09T03:04:37.381Z,14.60
2018-06-09T03:05:10.704Z,14.60
2018-06-09T03:05:43.994Z,14.60
2018-06-09T03:06:17.323Z,14.60
2018-06-09T03:06:50.667Z,14.60
2018-06-09T03:07:24.090Z,14.60
2018-06-09T03:07:57.590Z,14.70
2018-06-09T03:08:30.898Z,14.70
2018-06-09T03:09:05.682Z,14.70
2018-06-09T03:09:38.973Z,14.70
2018-06-09T03:10:13.267Z,14.70
2018-06-09T03:10:46.524Z,14.70
2018-06-09T03:11:19.782Z,14.80
2018-06-09T03:11:53.058Z,14.80
2018-06-09T03:12:26.338Z,14.80
2018-06-09T03:12:59.620Z,14.80
2018-06-09T03:13:32.878Z,14.80
2018-06-09T03:14:39.217Z,14.90
2018-06-09T03:15:13.103Z,14.90
2018-06-09T03:15:46.531Z,14.90
2018-06-09T03:16:19.812Z,14.90
2018-06-09T03:17:26.116Z,15.00
2018-06-09T03:17:59.387Z,15.00
2018-06-09T03:18:32.656Z,15.00
2018-06-09T03:19:05.937Z,15.00
2018-06-09T03:19:39.218Z,15.10
2018-06-09T03:20:12.850Z,15.10
2018-06-09T03:20:46.117Z,15.10
2018-06-09T03:21:19.366Z,15.10
2018-06-09T03:21:52.645Z,15.20
2018-06-09T03:22:25.916Z,15.20
2018-06-09T03:22:59.201Z,15.20
2018-06-09T03:23:32.485Z,15.20
2018-06-09T03:24:06.130Z,15.20
2018-06-09T03:24:39.380Z,15.30
2018-06-09T03:25:12.706Z,15.30
2018-06-09T03:25:45.980Z,15.40
2018-06-09T03:26:19.287Z,15.40
2018-06-09T03:26:52.565Z,15.40
2018-06-09T03:27:25.874Z,15.50
2018-06-09T03:27:59.254Z,15.60
2018-06-09T03:28:32.588Z,15.60
2018-06-09T03:29:06.206Z,15.70
2018-06-09T03:29:39.489Z,15.80
2018-06-09T03:30:13.138Z,15.90
2018-06-09T03:30:46.374Z,16.10
2018-06-09T03:31:19.636Z,16.20
2018-06-09T03:31:52.924Z,16.30
2018-06-09T03:32:26.194Z,16.50
2018-06-09T03:32:59.480Z,16.60
2018-06-09T03:33:32.740Z,16.70
2018-06-09T03:34:05.990Z,16.80
2018-06-09T03:35:12.320Z,17.00
2018-06-09T03:35:45.604Z,17.10
2018-06-09T03:36:18.872Z,17.20
2018-06-09T03:36:52.478Z,17.30
2018-06-09T03:37:25.760Z,17.40
2018-06-09T03:37:59.030Z,17.50
2018-06-09T03:38:33.325Z,17.50
2018-06-09T03:39:08.369Z,17.60
2018-06-09T03:39:41.666Z,17.70
2018-06-09T03:40:48.318Z,17.70
2018-06-09T03:41:21.966Z,17.80
2018-06-09T03:41:55.244Z,17.80
2018-06-09T03:42:28.549Z,17.80
2018-06-09T03:43:01.834Z,17.90
2018-06-09T03:43:35.118Z,18.00
2018-06-09T03:44:08.394Z,18.00
2018-06-09T03:44:41.637Z,18.10
2018-06-09T03:45:14.946Z,18.20
2018-06-09T03:45:48.200Z,18.30
2018-06-09T03:46:21.478Z,18.40
2018-06-09T03:46:54.716Z,18.40
2018-06-09T03:47:28.028Z,18.50
2018-06-09T03:48:01.300Z,18.60
2018-06-09T03:48:34.582Z,18.60
2018-06-09T03:49:07.889Z,18.70
2018-06-09T03:49:41.164Z,18.70
2018-06-09T03:50:14.437Z,18.80
2018-06-09T03:50:47.678Z,18.80
2018-06-09T03:51:20.976Z,18.90
2018-06-09T03:51:54.290Z,18.90
2018-06-09T03:52:27.640Z,19.00
2018-06-09T03:53:34.096Z,19.10
2018-06-09T03:54:07.405Z,19.10
2018-06-09T03:54:40.736Z,19.10
2018-06-09T03:55:14.066Z,19.20
2018-06-09T03:55:47.379Z,19.20
2018-06-09T03:56:20.669Z,19.20
2018-06-09T03:56:53.981Z,19.30
2018-06-09T03:57:27.328Z,19.30
2018-06-09T03:58:00.631Z,19.30
2018-06-09T03:58:33.902Z,19.40
2018-06-09T03:59:07.212Z,19.40
2018-06-09T03:59:40.536Z,19.40
2018-06-09T04:00:14.174Z,19.40
2018-06-09T04:00:47.520Z,19.40
2018-06-09T04:01:20.804Z,19.50
2018-06-09T04:01:54.100Z,19.50
2018-06-09T04:02:27.447Z,19.60
2018-06-09T04:03:00.734Z,19.60
2018-06-09T04:03:34.044Z,19.70
2018-06-09T04:04:07.661Z,19.70
2018-06-09T04:04:41.282Z,19.80
2018-06-09T04:05:14.570Z,19.80
2018-06-09T04:05:47.870Z,19.90
2018-06-09T04:06:21.444Z,19.90
2018-06-09T04:06:54.708Z,20.00
2018-06-09T04:07:28.050Z,20.10
2018-06-09T04:08:01.322Z,20.10
2018-06-09T04:09:08.482Z,20.20
2018-06-09T04:09:41.803Z,20.30
2018-06-09T04:10:15.660Z,20.30
2018-06-09T04:10:48.966Z,20.40
2018-06-09T04:11:22.274Z,20.50
2018-06-09T04:11:55.572Z,20.50
2018-06-09T04:12:28.890Z,20.60
2018-06-09T05:33:05.490Z,20.70
2018-06-09T05:33:38.846Z,23.50
2018-06-09T05:34:12.295Z,23.50
2018-06-09T05:34:46.286Z,23.60
2018-06-09T05:35:19.602Z,23.60
2018-06-09T05:35:52.885Z,23.70
2018-06-09T05:36:26.162Z,23.70
2018-06-09T05:36:59.492Z,23.80
2018-06-09T05:37:33.168Z,23.90
2018-06-09T05:38:06.870Z,23.90
2018-06-09T05:38:40.180Z,23.90
2018-06-09T05:39:13.501Z,24.00
2018-06-09T05:39:46.821Z,24.10
2018-06-09T05:40:20.109Z,24.20
2018-06-09T05:40:54.017Z,24.30
2018-06-09T05:41:27.447Z,24.30
2018-06-09T05:42:00.983Z,24.40
2018-06-09T05:42:34.402Z,24.40
2018-06-09T05:43:07.815Z,24.40
2018-06-09T05:43:41.155Z,24.50
2018-06-09T05:44:14.469Z,24.50
2018-06-09T05:44:47.753Z,24.40
2018-06-09T05:45:54.305Z,24.40
2018-06-09T05:47:00.774Z,24.50
2018-06-09T05:47:34.052Z,24.50
2018-06-09T05:48:07.745Z,24.50
2018-06-09T05:48:41.077Z,24.50
2018-06-09T05:49:14.427Z,24.50
2018-06-09T05:49:47.754Z,24.50
2018-06-09T05:50:21.078Z,24.50
2018-06-09T05:50:54.368Z,24.40
2018-06-09T05:51:27.648Z,24.40
2018-06-09T05:52:01.056Z,24.40
2018-06-09T05:52:34.331Z,24.50
2018-06-09T05:53:07.636Z,24.50
2018-06-09T05:53:40.943Z,24.50
2018-06-09T05:54:14.282Z,24.50
2018-06-09T05:54:47.580Z,24.50
2018-06-09T05:55:20.862Z,24.50
2018-06-09T05:55:54.146Z,24.60
2018-06-09T05:56:27.461Z,24.60
2018-06-09T05:57:01.334Z,24.60
2018-06-09T05:57:34.651Z,24.60
2018-06-09T05:58:08.082Z,24.70
2018-06-09T05:58:41.542Z,24.70
2018-06-09T05:59:14.832Z,24.70
2018-06-09T05:59:48.127Z,24.70
2018-06-09T06:00:21.434Z,24.80
2018-06-09T06:00:54.710Z,24.80
2018-06-09T06:01:28.051Z,24.90
2018-06-09T06:02:01.387Z,24.90
2018-06-09T06:02:35.062Z,25.00
2018-06-09T06:03:08.453Z,25.10
2018-06-09T06:03:41.903Z,25.10
2018-06-09T06:04:15.234Z,25.20
2018-06-09T06:04:48.570Z,25.10
2018-06-09T06:05:21.838Z,25.10
2018-06-09T06:05:55.122Z,25.10
2018-06-09T06:06:28.406Z,24.90
2018-06-09T06:07:01.706Z,24.90
2018-06-09T06:07:35.010Z,24.80
2018-06-09T06:08:08.982Z,24.70
2018-06-09T06:08:42.288Z,24.60
2018-06-09T06:09:15.576Z,24.50
2018-06-09T06:09:48.879Z,24.40
2018-06-09T06:10:22.146Z,24.30
2018-06-09T06:10:55.434Z,24.30
2018-06-09T06:11:28.714Z,24.30
2018-06-09T06:12:02.305Z,24.30
2018-06-09T06:12:35.575Z,24.40
2018-06-09T06:13:08.860Z,24.30
2018-06-09T06:13:42.467Z,24.40
2018-06-09T06:14:16.170Z,24.30
2018-06-09T06:14:49.464Z,24.30
2018-06-09T06:15:22.766Z,24.30
2018-06-09T06:15:56.057Z,24.30
2018-06-09T06:16:29.355Z,24.30
2018-06-09T06:17:02.670Z,24.30
2018-06-09T06:17:35.968Z,24.30
2018-06-09T06:18:09.237Z,24.30
2018-06-09T06:18:42.517Z,24.30
2018-06-09T06:19:15.930Z,24.30
2018-06-09T06:19:49.234Z,24.30
2018-06-09T06:20:22.530Z,24.20
2018-06-09T06:20:55.798Z,24.10
2018-06-09T06:21:29.076Z,24.00
2018-06-09T06:22:02.368Z,23.90
2018-06-09T06:22:35.986Z,23.90
2018-06-09T06:23:09.333Z,23.80
2018-06-09T06:23:42.623Z,23.80
2018-06-09T06:24:16.238Z,23.70
2018-06-09T06:24:49.917Z,23.60
2018-06-09T06:25:23.176Z,23.50
2018-06-09T06:25:56.652Z,23.50
2018-06-09T06:27:03.018Z,23.20
2018-06-09T06:27:36.280Z,23.10
2018-06-09T06:28:09.907Z,22.90
2018-06-09T06:28:43.538Z,22.90
2018-06-09T06:29:16.811Z,22.80
2018-06-09T06:29:50.122Z,22.70
2018-06-09T06:30:23.749Z,22.60
2018-06-09T06:30:57.075Z,22.50
2018-06-09T06:31:30.354Z,22.40
2018-06-09T06:32:04.148Z,22.40
2018-06-09T06:32:37.437Z,22.40
2018-06-09T06:33:11.850Z,22.30
2018-06-09T06:33:45.217Z,22.20
2018-06-09T06:34:18.484Z,22.20
2018-06-09T06:34:51.841Z,22.10
2018-06-09T06:35:25.144Z,22.10
2018-06-09T06:35:58.674Z,22.10
2018-06-09T06:36:31.938Z,22.00
2018-06-09T06:37:05.939Z,21.90
2018-06-09T06:37:39.356Z,21.90
2018-06-09T06:38:13.072Z,21.80
2018-06-09T06:38:46.389Z,21.80
2018-06-09T06:39:19.688Z,21.60
2018-06-09T06:39:53.008Z,21.60
2018-06-09T06:40:26.336Z,21.50
2018-06-09T06:41:32.770Z,21.40
2018-06-09T06:42:06.582Z,21.30
2018-06-09T06:42:39.919Z,21.30
2018-06-09T06:43:13.206Z,21.30
2018-06-09T06:43:46.497Z,21.30
2018-06-09T06:44:19.784Z,21.30
2018-06-09T06:44:53.086Z,21.20
2018-06-09T06:45:26.384Z,21.20
2018-06-09T06:45:59.666Z,21.20
2018-06-09T06:46:32.982Z,21.20
2018-06-09T06:47:06.239Z,21.20
2018-06-09T06:47:39.528Z,21.30
2018-06-09T06:48:12.788Z,21.30
2018-06-09T06:48:46.232Z,21.30
2018-06-09T06:49:19.567Z,21.30
2018-06-09T06:49:52.884Z,21.30
2018-06-09T06:50:26.304Z,21.30
2018-06-09T06:50:59.600Z,21.30
2018-06-09T06:51:32.878Z,21.20
2018-06-09T06:52:06.138Z,21.20
2018-06-09T06:52:39.411Z,21.20
2018-06-09T06:53:45.763Z,21.20
2018-06-09T06:54:19.079Z,21.10
2018-06-09T06:54:52.403Z,21.10
2018-06-09T06:55:26.026Z,21.10
2018-06-09T06:55:59.310Z,21.00
2018-06-09T06:56:32.742Z,21.00
2018-06-09T06:57:06.192Z,21.00
2018-06-09T06:57:39.511Z,21.00
2018-06-09T06:58:12.944Z,21.00
2018-06-09T06:58:46.242Z,21.00
2018-06-09T06:59:19.620Z,21.00
2018-06-09T06:59:52.884Z,21.00
2018-06-09T07:00:26.234Z,21.00
2018-06-09T07:00:59.532Z,21.00
2018-06-09T07:01:32.832Z,21.10
2018-06-09T07:02:06.597Z,21.00
2018-06-09T07:02:40.066Z,21.00
2018-06-09T07:03:14.392Z,21.00
2018-06-09T07:03:47.672Z,21.00
2018-06-09T07:04:20.936Z,21.10
2018-06-09T07:04:54.252Z,21.00
2018-06-09T07:05:27.610Z,21.00
2018-06-09T07:06:00.963Z,21.00
2018-06-09T07:06:34.256Z,21.00
2018-06-09T07:07:07.782Z,21.10
2018-06-09T07:07:41.064Z,21.10
2018-06-09T07:08:14.443Z,21.10
2018-06-09T07:08:47.714Z,21.00
2018-06-09T07:09:21.020Z,21.00
2018-06-09T07:09:54.286Z,21.10
2018-06-09T07:10:27.634Z,21.10
2018-06-09T07:11:00.901Z,21.10
2018-06-09T07:11:34.396Z,21.10
2018-06-09T07:12:08.162Z,21.20
2018-06-09T07:12:41.702Z,21.20
2018-06-09T07:13:15.180Z,21.20
2018-06-09T07:13:48.816Z,21.20
2018-06-09T07:14:22.473Z,21.30
2018-06-09T07:14:55.738Z,21.30
2018-06-09T07:15:29.570Z,21.40
2018-06-09T07:16:03.570Z,21.40
2018-06-09T07:16:36.892Z,21.40
2018-06-09T07:17:10.190Z,21.50
2018-06-09T07:17:43.822Z,21.50
2018-06-09T07:18:17.088Z,21.50
2018-06-09T07:18:50.722Z,21.50
2018-06-09T07:19:24.236Z,21.60
2018-06-09T07:19:57.508Z,21.60
2018-06-09T07:20:30.814Z,21.50
2018-06-09T07:21:04.115Z,21.50
2018-06-09T07:21:37.904Z,21.50
2018-06-09T07:22:11.234Z,21.50
2018-06-09T07:22:44.666Z,21.50
2018-06-09T07:23:17.934Z,21.50
2018-06-09T07:23:51.199Z,21.50
2018-06-09T07:24:24.492Z,21.40
2018-06-09T07:24:57.788Z,21.50
2018-06-09T07:25:31.088Z,21.50
2018-06-09T07:26:04.916Z,21.50
2018-06-09T07:26:38.281Z,21.50
2018-06-09T07:27:11.902Z,21.60
2018-06-09T07:27:45.554Z,21.60
2018-06-09T07:28:18.888Z,21.60
2018-06-09T07:28:52.204Z,21.60
2018-06-09T07:29:25.495Z,21.60
2018-06-09T07:29:58.764Z,21.70
2018-06-09T07:30:32.421Z,21.70
2018-06-09T07:31:05.765Z,21.70
2018-06-09T07:31:39.063Z,21.70
2018-06-09T07:32:12.892Z,21.80
2018-06-09T07:32:46.173Z,21.80
2018-06-09T07:33:19.447Z,21.90
2018-06-09T07:33:52.736Z,21.90
2018-06-09T07:34:26.050Z,21.90
2018-06-09T07:34:59.707Z,21.90
2018-06-09T07:35:32.996Z,22.00
2018-06-09T07:36:06.299Z,21.90
2018-06-09T07:36:39.617Z,21.90
2018-06-09T07:37:45.963Z,21.90
2018-06-09T07:38:19.267Z,21.90
2018-06-09T07:38:52.588Z,21.90
2018-06-09T07:39:25.924Z,21.90
2018-06-09T07:39:59.242Z,21.90
2018-06-09T07:40:32.555Z,21.80
2018-06-09T07:41:06.402Z,21.80
2018-06-09T07:41:39.724Z,21.80
2018-06-09T07:42:13.005Z,21.80
2018-06-09T07:42:46.330Z,21.90
2018-06-09T07:43:19.656Z,21.90
2018-06-09T07:43:52.946Z,21.90
2018-06-09T07:44:26.274Z,21.90
2018-06-09T07:44:59.556Z,22.00
2018-06-09T07:45:32.859Z,22.00
2018-06-09T07:46:06.179Z,22.00
2018-06-09T07:46:39.577Z,22.00
2018-06-09T07:47:12.848Z,22.00
2018-06-09T07:47:46.158Z,22.00
2018-06-09T07:48:19.586Z,22.00
2018-06-09T07:48:53.077Z,22.10
2018-06-09T07:49:26.689Z,22.10
2018-06-09T07:49:59.978Z,22.10
2018-06-09T07:51:06.351Z,22.10
2018-06-09T07:51:39.839Z,22.10
2018-06-09T07:52:13.175Z,22.20
2018-06-09T07:52:46.498Z,22.20
2018-06-09T07:53:53.166Z,22.30
2018-06-09T07:54:26.531Z,22.30
2018-06-09T07:55:32.910Z,22.40
2018-06-09T07:56:06.590Z,22.40
2018-06-09T07:56:39.871Z,22.40
2018-06-09T07:57:13.478Z,22.50
2018-06-09T07:57:46.758Z,22.40
2018-06-09T07:58:20.073Z,22.50
2018-06-09T07:58:53.386Z,22.50
2018-06-09T07:59:26.663Z,22.50
2018-06-09T08:00:00.276Z,22.60
2018-06-09T08:00:33.556Z,22.60
2018-06-09T08:01:06.806Z,22.60
2018-06-09T08:01:40.111Z,22.70
2018-06-09T08:02:13.715Z,22.70
2018-06-09T08:02:47.028Z,22.70
2018-06-09T08:03:20.341Z,22.70
2018-06-09T08:03:53.658Z,22.70
2018-06-09T08:04:26.949Z,22.70
2018-06-09T08:05:00.254Z,22.70
2018-06-09T08:05:33.558Z,22.80
2018-06-09T08:06:07.162Z,22.80
2018-06-09T08:06:40.440Z,22.80
2018-06-09T08:07:13.781Z,22.80
2018-06-09T08:07:47.073Z,22.80
2018-06-09T08:08:20.346Z,22.90
2018-06-09T08:08:53.634Z,22.90
2018-06-09T08:09:26.958Z,22.90
2018-06-09T08:10:00.263Z,22.90
2018-06-09T08:10:33.580Z,22.90
2018-06-09T08:11:06.882Z,23.00
2018-06-09T08:11:40.181Z,23.00
2018-06-09T08:12:13.520Z,23.00
2018-06-09T08:12:46.930Z,23.00
2018-06-09T08:13:20.244Z,23.10
2018-06-09T08:13:53.579Z,23.10
2018-06-09T08:14:27.010Z,23.10
2018-06-09T08:15:00.336Z,23.10
2018-06-09T08:15:33.811Z,23.20
2018-06-09T08:16:07.114Z,23.20
2018-06-09T08:16:40.436Z,23.20
2018-06-09T08:17:13.723Z,23.20
2018-06-09T08:17:46.992Z,23.30
2018-06-09T08:18:20.282Z,23.30
2018-06-09T08:18:53.592Z,23.30
2018-06-09T08:19:26.911Z,23.30
2018-06-09T08:20:00.461Z,23.30
2018-06-09T08:20:33.820Z,23.40
2018-06-09T08:21:07.175Z,23.40
2018-06-09T08:21:40.526Z,23.40
2018-06-09T08:22:13.811Z,23.40
2018-06-09T08:22:47.083Z,23.40
2018-06-09T08:23:20.745Z,23.50
2018-06-09T08:23:54.037Z,23.50
2018-06-09T08:24:27.332Z,23.50
2018-06-09T08:25:00.610Z,23.60
2018-06-09T08:25:33.958Z,23.60
2018-06-09T08:26:07.278Z,23.60
2018-06-09T08:26:40.593Z,23.70
2018-06-09T08:27:14.059Z,23.70
2018-06-09T08:27:47.338Z,23.70
2018-06-09T08:28:20.680Z,23.70
2018-06-09T08:28:53.952Z,23.70
2018-06-09T08:29:27.460Z,23.80
2018-06-09T08:30:01.067Z,23.80
2018-06-09T08:30:34.374Z,23.80
2018-06-09T08:31:07.812Z,23.80
2018-06-09T08:31:41.113Z,23.80
2018-06-09T08:32:14.744Z,23.80
2018-06-09T08:32:48.652Z,23.90
2018-06-09T08:33:21.933Z,23.90
2018-06-09T08:33:55.716Z,24.00
2018-06-09T08:34:29.028Z,24.00
2018-06-09T08:35:02.375Z,24.00
2018-06-09T08:35:35.717Z,24.10
2018-06-09T08:36:09.468Z,24.10
2018-06-09T08:36:42.878Z,24.10
2018-06-09T08:37:16.175Z,24.10
2018-06-09T08:37:49.453Z,24.10
2018-06-09T08:38:22.777Z,24.20
2018-06-09T08:38:56.020Z,24.20
2018-06-09T08:39:29.260Z,24.30
2018-06-09T08:40:02.586Z,24.30
2018-06-09T08:40:35.884Z,24.30
2018-06-09T08:41:09.157Z,24.40
2018-06-09T08:41:42.442Z,24.40
2018-06-09T08:42:15.697Z,24.40
2018-06-09T08:42:49.045Z,24.40
2018-06-09T08:43:22.357Z,24.50
2018-06-09T08:43:55.641Z,24.50
2018-06-09T08:44:28.936Z,24.50
2018-06-09T08:46:05.657Z,24.50
2018-06-09T08:46:38.996Z,24.40
2018-06-09T08:47:12.338Z,24.40
2018-06-09T08:47:45.608Z,24.40
2018-06-09T08:48:18.871Z,24.40
2018-06-09T08:48:52.199Z,24.40
2018-06-09T08:49:25.521Z,24.50
2018-06-09T08:49:58.825Z,24.50
2018-06-09T08:50:32.439Z,24.50
2018-06-09T08:51:05.821Z,24.50
2018-06-09T08:51:39.432Z,24.50
2018-06-09T08:52:12.754Z,24.50
2018-06-09T08:52:46.057Z,24.50
2018-06-09T08:53:19.354Z,24.50
2018-06-09T08:53:52.606Z,24.50
2018-06-09T08:54:25.903Z,24.50
2018-06-09T08:54:59.253Z,24.50
2018-06-09T08:55:32.580Z,24.50
2018-06-09T08:56:05.905Z,24.50
2018-06-09T08:56:39.209Z,24.60
2018-06-09T08:57:12.813Z,24.60
2018-06-09T08:57:46.118Z,24.70
2018-06-09T08:58:19.603Z,24.70
2018-06-09T08:58:52.937Z,24.70
2018-06-09T08:59:26.591Z,24.70
2018-06-09T08:59:59.918Z,24.80
2018-06-09T09:00:33.259Z,24.80
2018-06-09T09:01:06.938Z,24.70
2018-06-09T09:01:40.247Z,24.70
2018-06-09T09:02:13.573Z,24.70
2018-06-09T09:02:47.846Z,24.70
2018-06-09T09:03:21.157Z,24.70
2018-06-09T09:03:54.437Z,24.80
2018-06-09T09:04:27.735Z,24.80
2018-06-09T09:05:01.376Z,24.80